KBAD/BAD METAR and TAF weather

Enter ICAO airport designator
Station Type Date Time Source
KBAD METAR 2019/10/15 08:43 UTC NOAA

KBAD 150843Z AUTO 17009KT 7SM OVC004 20/20 A2993 RMK AO2 RAB32E43 CIG 003 RWY15 SLP137


Station Type Date Time Source
KBAD Decoded METAR 2019/10/15 08:43 UTC NOAA

Barksdale Air Force Base, LA, United States (KBAD) 32-30N 093-40W
Oct 15, 2019 - 04:43 AM EDT / 2019.10.15 0843 UTC
Wind: from the S (170 degrees) at 10 MPH (9 KT):0
Visibility: 7 mile(s):0
Sky conditions: overcast
Temperature: 68 F (20 C)
Dew Point: 68 F (20 C)
Relative Humidity: 100%
Pressure (altimeter): 29.93 in. Hg (1013 hPa)
ob: KBAD 150843Z AUTO 17009KT 7SM OVC004 20/20 A2993 RMK AO2 RAB32E43 CIG 003 RWY15 SLP137
cycle: 8

Station Type Date Time Source
KBAD TAF 2019/10/12 10:45 UTC NOAA

TAF TAF KBAD 121015Z 1210/1316 34008KT 9999 SKC QNH3019INS
BECMG 1214/1215 03015G20KT 9999 SKC QNH3016INS
BECMG 1217/1218 02010KT 9999 SKC QNH3006INS
BECMG 1302/1303 10003KT 9999 BKN120 QNH3003INS
BECMG 1314/1315 12010KT 9999 SCT040 QNH3003INS TX20/1221Z TN07/1212Z

Example: see airport list